Time;durP1;ratioP1;P1;durP2;ratioP2;P2;SDS_P1;SDS_P2;PMS_P1;PMS_P2;Temp;Humidity;BMP_temperature;BMP_pressure;BME280_temperature;BME280_humidity;BME280_pressure;Samples;Min_cycle;Max_cycle;Signal;HPM_P1;HPM_P2
2024/01/12 00:01:45;;;;;;;26.98;17.63;;;2.00;99.90;;;;;;5073179;28;20101;-64
2024/01/12 00:04:12;;;;;;;29.73;17.27;;;2.10;99.90;;;;;;5071458;28;20064;-63
2024/01/12 00:06:38;;;;;;;26.08;15.15;;;1.90;99.90;;;;;;5071966;28;20059;-63
2024/01/12 00:09:05;;;;;;;28.13;15.52;;;2.00;99.90;;;;;;5072151;28;20063;-62
2024/01/12 00:11:31;;;;;;;28.63;15.25;;;2.10;99.90;;;;;;5072879;28;20055;-63
2024/01/12 00:13:57;;;;;;;27.90;15.18;;;2.00;99.90;;;;;;5071192;28;20048;-62
2024/01/12 00:16:24;;;;;;;24.70;14.38;;;1.90;99.90;;;;;;5071373;28;20044;-63
2024/01/12 00:18:50;;;;;;;21.90;13.40;;;2.00;99.90;;;;;;5071536;28;20056;-63
2024/01/12 00:21:16;;;;;;;24.08;13.60;;;2.10;99.90;;;;;;5072513;28;20045;-63
2024/01/12 00:23:42;;;;;;;21.70;13.13;;;2.10;99.90;;;;;;5071686;28;20052;-63
2024/01/12 00:26:09;;;;;;;19.15;11.88;;;2.20;99.90;;;;;;5071617;28;20056;-62
2024/01/12 00:28:35;;;;;;;18.98;9.43;;;2.10;99.90;;;;;;5072467;28;20076;-62
2024/01/12 00:31:01;;;;;;;19.10;9.98;;;2.20;99.90;;;;;;5071743;28;20427;-63
2024/01/12 00:33:27;;;;;;;16.25;8.85;;;2.40;99.90;;;;;;5072355;28;20052;-63
2024/01/12 00:35:54;;;;;;;19.55;8.98;;;2.60;99.90;;;;;;5072220;28;20121;-64
2024/01/12 00:38:20;;;;;;;17.98;8.80;;;2.40;99.90;;;;;;5070541;28;20044;-63
2024/01/12 00:40:46;;;;;;;21.70;9.25;;;2.40;99.90;;;;;;5071234;28;20056;-64
2024/01/12 00:43:13;;;;;;;21.35;10.18;;;2.30;99.90;;;;;;5071801;28;20053;-62
2024/01/12 00:45:39;;;;;;;22.80;10.30;;;2.30;99.90;;;;;;5070737;28;20395;-63
2024/01/12 00:48:05;;;;;;;17.73;10.18;;;2.30;99.90;;;;;;5070304;28;20421;-63
2024/01/12 00:50:32;;;;;;;20.50;9.25;;;2.40;99.90;;;;;;5070609;28;20048;-62
2024/01/12 00:52:58;;;;;;;23.73;9.70;;;2.30;99.90;;;;;;5071063;28;20040;-62
2024/01/12 00:55:24;;;;;;;16.15;9.05;;;2.30;99.90;;;;;;5071706;28;20045;-63
2024/01/12 00:57:51;;;;;;;15.15;8.73;;;2.30;99.90;;;;;;5070668;28;20044;-63
2024/01/12 01:00:17;;;;;;;17.95;9.23;;;2.40;99.90;;;;;;5070558;28;20433;-62
2024/01/12 01:02:43;;;;;;;20.73;9.05;;;2.40;99.90;;;;;;5071900;28;20056;-63
2024/01/12 01:05:10;;;;;;;13.35;7.03;;;2.40;99.90;;;;;;5070395;28;20056;-63
2024/01/12 01:07:36;;;;;;;12.40;7.65;;;2.30;99.90;;;;;;5071510;28;20052;-64
2024/01/12 01:10:02;;;;;;;16.40;9.43;;;2.30;99.90;;;;;;5070350;28;20045;-62
2024/01/12 01:12:29;;;;;;;18.95;10.45;;;2.40;99.90;;;;;;5071410;28;20048;-63
2024/01/12 01:14:55;;;;;;;21.20;9.90;;;2.50;99.90;;;;;;5071538;28;20048;-63
2024/01/12 01:17:21;;;;;;;17.58;9.40;;;2.40;99.90;;;;;;5071583;28;20060;-63
2024/01/12 01:19:47;;;;;;;15.18;8.32;;;2.50;99.90;;;;;;5069959;28;20499;-63
2024/01/12 01:22:17;;;;;;;19.20;9.05;;;2.30;99.90;;;;;;5070125;28;20060;-63
2024/01/12 01:24:43;;;;;;;18.00;8.75;;;2.50;99.90;;;;;;5053318;28;20045;-63
2024/01/12 01:27:09;;;;;;;15.43;9.43;;;2.30;99.90;;;;;;5070708;28;20511;-64
2024/01/12 01:29:35;;;;;;;17.23;8.68;;;2.40;99.90;;;;;;5071133;28;20346;-63
2024/01/12 01:32:02;;;;;;;14.02;8.57;;;2.50;99.90;;;;;;5071307;28;20040;-62
2024/01/12 01:34:28;;;;;;;16.75;7.57;;;2.40;99.90;;;;;;5070877;28;20045;-62
2024/01/12 01:36:58;;;;;;;14.32;8.35;;;2.40;99.90;;;;;;5069964;28;20049;-63
2024/01/12 01:39:24;;;;;;;16.40;7.80;;;2.50;99.90;;;;;;5070085;28;20056;-63
2024/01/12 01:41:51;;;;;;;16.52;8.65;;;2.50;99.90;;;;;;5071082;28;20314;-63
2024/01/12 01:44:17;;;;;;;14.55;7.15;;;2.30;99.90;;;;;;5070038;28;20064;-63
2024/01/12 01:46:44;;;;;;;15.88;7.55;;;2.40;99.90;;;;;;5069777;28;20068;-61
2024/01/12 01:49:10;;;;;;;14.75;6.97;;;2.50;99.90;;;;;;5070682;28;20079;-64
2024/01/12 01:51:37;;;;;;;13.73;6.30;;;2.50;99.90;;;;;;5070022;28;20049;-63
2024/01/12 01:54:03;;;;;;;12.15;5.70;;;2.40;99.90;;;;;;5070501;28;20040;-63
2024/01/12 01:56:30;;;;;;;12.00;5.75;;;2.40;99.90;;;;;;5069745;28;20048;-63
2024/01/12 01:58:56;;;;;;;12.68;5.82;;;2.40;99.90;;;;;;5070497;28;20059;-63
2024/01/12 02:01:23;;;;;;;13.95;6.18;;;2.40;99.90;;;;;;5069860;28;20476;-63
2024/01/12 02:03:50;;;;;;;11.32;5.07;;;2.50;99.90;;;;;;5070887;28;20080;-63
2024/01/12 02:06:16;;;;;;;9.50;4.63;;;2.40;99.90;;;;;;5069859;28;20464;-63
2024/01/12 02:08:42;;;;;;;11.93;5.18;;;2.50;99.90;;;;;;5068729;28;20241;-63
2024/01/12 02:11:09;;;;;;;8.70;3.95;;;2.40;99.90;;;;;;5069850;28;20064;-63
2024/01/12 02:13:35;;;;;;;9.18;3.88;;;2.50;99.90;;;;;;5070507;28;20044;-65
2024/01/12 02:16:01;;;;;;;11.27;3.83;;;2.40;99.90;;;;;;5070142;28;20045;-63
2024/01/12 02:18:28;;;;;;;8.55;4.03;;;2.50;99.90;;;;;;5070094;28;20052;-63
2024/01/12 02:20:57;;;;;;;10.27;3.10;;;2.40;99.90;;;;;;5070253;28;20056;-63
2024/01/12 02:23:24;;;;;;;6.90;3.38;;;2.60;99.90;;;;;;5069992;28;20472;-63
2024/01/12 02:25:50;;;;;;;7.55;3.58;;;2.50;99.90;;;;;;5069986;28;20132;-63
2024/01/12 02:28:17;;;;;;;10.73;4.53;;;2.70;99.90;;;;;;5069758;28;20218;-63
2024/01/12 02:30:44;;;;;;;11.80;3.80;;;2.60;99.90;;;;;;5069603;28;20049;-62
2024/01/12 02:33:10;;;;;;;11.13;4.47;;;2.50;99.90;;;;;;5069986;28;20036;-62
2024/01/12 02:35:36;;;;;;;10.27;4.70;;;2.50;99.90;;;;;;5069765;28;20049;-62
2024/01/12 02:38:03;;;;;;;8.90;3.70;;;2.70;99.90;;;;;;5070024;28;20103;-63
2024/01/12 02:40:30;;;;;;;9.50;3.05;;;2.60;99.90;;;;;;5069007;28;20052;-63
2024/01/12 02:42:56;;;;;;;6.60;3.80;;;2.70;99.90;;;;;;5068782;28;20052;-63
2024/01/12 02:45:22;;;;;;;10.10;3.03;;;2.60;99.90;;;;;;5069557;28;20048;-63
2024/01/12 02:47:48;;;;;;;9.05;3.00;;;2.60;99.90;;;;;;5069551;28;20056;-63
2024/01/12 02:50:15;;;;;;;9.18;3.60;;;2.60;99.90;;;;;;5051307;28;20456;-63
2024/01/12 02:52:41;;;;;;;7.10;3.10;;;2.50;99.90;;;;;;5069629;28;20049;-62
2024/01/12 02:55:08;;;;;;;6.80;3.17;;;2.60;99.90;;;;;;5068368;28;20049;-63
2024/01/12 02:57:34;;;;;;;8.77;3.00;;;2.60;99.90;;;;;;5069954;28;20064;-62
2024/01/12 03:00:00;;;;;;;7.15;2.70;;;2.60;99.90;;;;;;5068049;28;20048;-63
2024/01/12 03:02:26;;;;;;;9.43;3.10;;;2.60;99.90;;;;;;5069384;28;20516;-62
2024/01/12 03:04:53;;;;;;;7.90;3.42;;;2.70;99.90;;;;;;5068957;28;20392;-62
2024/01/12 03:07:19;;;;;;;8.98;4.25;;;2.80;99.90;;;;;;5069616;28;20044;-63
2024/01/12 03:09:46;;;;;;;8.07;2.85;;;2.80;99.90;;;;;;5067583;28;20087;-62
2024/01/12 03:12:12;;;;;;;8.77;3.58;;;2.70;99.90;;;;;;5069618;28;20060;-63
2024/01/12 03:14:38;;;;;;;8.55;3.45;;;2.80;99.90;;;;;;5069199;28;20056;-62
2024/01/12 03:17:05;;;;;;;6.72;2.65;;;2.80;99.90;;;;;;5069723;28;20044;-63
2024/01/12 03:19:31;;;;;;;7.65;3.45;;;2.80;99.90;;;;;;5068620;28;20052;-64
2024/01/12 03:21:57;;;;;;;7.57;3.25;;;2.70;99.90;;;;;;5067412;28;20129;-63
2024/01/12 03:24:23;;;;;;;6.82;3.05;;;2.80;99.90;;;;;;5069217;28;20045;-63
2024/01/12 03:26:50;;;;;;;7.93;2.85;;;2.70;99.90;;;;;;5068806;28;20387;-63
2024/01/12 03:29:18;;;;;;;10.70;3.13;;;2.80;99.90;;;;;;5067741;28;20068;-63
2024/01/12 03:31:45;;;;;;;7.30;3.03;;;2.70;99.90;;;;;;5069020;28;20095;-63
2024/01/12 03:34:11;;;;;;;6.45;2.80;;;2.80;99.90;;;;;;5067729;28;20119;-63
2024/01/12 03:36:37;;;;;;;4.75;2.53;;;2.80;99.90;;;;;;5067821;28;20056;-62
2024/01/12 03:39:04;;;;;;;7.63;3.38;;;2.80;99.90;;;;;;5068891;28;20048;-64
2024/01/12 03:41:30;;;;;;;9.02;3.10;;;2.70;99.90;;;;;;5067998;28;20056;-63
2024/01/12 03:43:57;;;;;;;6.15;3.20;;;2.80;99.90;;;;;;5068999;28;20098;-63
2024/01/12 03:46:23;;;;;;;7.93;2.80;;;2.70;99.90;;;;;;5068963;28;20052;-64
2024/01/12 03:48:50;;;;;;;7.93;3.58;;;2.70;99.90;;;;;;5068846;28;20158;-63
2024/01/12 03:51:16;;;;;;;6.53;2.88;;;2.70;99.90;;;;;;5068997;28;20037;-64
2024/01/12 03:53:42;;;;;;;9.57;2.80;;;2.70;99.90;;;;;;5069476;28;20063;-65
2024/01/12 03:56:09;;;;;;;10.52;3.15;;;2.60;99.90;;;;;;5068916;28;20443;-62
2024/01/12 03:58:38;;;;;;;8.85;3.40;;;2.60;99.90;;;;;;5067542;28;20054;-63
2024/01/12 04:01:07;;;;;;;9.95;3.15;;;2.60;99.90;;;;;;5069208;28;20052;-62
2024/01/12 04:03:33;;;;;;;7.90;2.90;;;2.70;99.90;;;;;;5069399;28;20067;-63
2024/01/12 04:06:00;;;;;;;10.57;3.70;;;2.70;99.90;;;;;;5067478;28;20057;-64
2024/01/12 04:08:26;;;;;;;8.07;2.80;;;2.70;99.90;;;;;;5068379;28;20071;-63
2024/01/12 04:10:52;;;;;;;10.60;3.13;;;2.50;99.90;;;;;;5068915;28;20040;-63
2024/01/12 04:13:18;;;;;;;6.03;3.15;;;2.50;99.90;;;;;;5069204;28;20064;-63
2024/01/12 04:15:45;;;;;;;6.50;3.30;;;2.50;99.90;;;;;;5067212;28;20049;-62
2024/01/12 04:18:11;;;;;;;9.10;3.08;;;2.50;99.90;;;;;;5068524;28;20588;-62
2024/01/12 04:20:37;;;;;;;8.80;2.92;;;2.60;99.90;;;;;;5069145;28;20049;-62
2024/01/12 04:23:03;;;;;;;7.78;3.45;;;2.70;99.90;;;;;;5068256;28;20252;-64
2024/01/12 04:25:30;;;;;;;7.15;3.28;;;2.60;99.90;;;;;;5068747;28;20044;-63
2024/01/12 04:27:56;;;;;;;7.65;3.30;;;2.70;99.90;;;;;;5067740;28;20052;-63
2024/01/12 04:30:23;;;;;;;7.95;3.42;;;2.60;99.90;;;;;;5068471;28;20059;-63
2024/01/12 04:32:50;;;;;;;10.10;3.33;;;2.70;99.90;;;;;;5070509;28;20044;-63
2024/01/12 04:35:16;;;;;;;9.93;3.50;;;2.70;99.90;;;;;;5072589;28;20356;-63
2024/01/12 04:37:42;;;;;;;13.40;3.88;;;2.80;99.90;;;;;;5072490;28;20109;-63
2024/01/12 04:40:09;;;;;;;9.43;3.80;;;2.60;99.90;;;;;;5071907;28;20499;-63
2024/01/12 04:42:35;;;;;;;8.40;4.22;;;2.80;99.90;;;;;;5071616;28;20052;-63
2024/01/12 04:45:02;;;;;;;10.60;3.83;;;2.70;99.90;;;;;;5072390;28;20052;-64
2024/01/12 04:47:30;;;;;;;6.72;4.00;;;2.60;99.90;;;;;;5072278;28;20329;-62
2024/01/12 04:49:57;;;;;;;10.20;3.97;;;2.70;99.90;;;;;;5070630;28;20059;-63
2024/01/12 04:52:23;;;;;;;8.18;3.35;;;2.70;99.90;;;;;;5072235;28;20045;-63
2024/01/12 04:54:49;;;;;;;8.95;3.78;;;2.60;99.90;;;;;;5071893;28;20410;-63
2024/01/12 04:57:16;;;;;;;8.25;3.83;;;2.70;99.90;;;;;;5071876;28;20534;-63
2024/01/12 04:59:42;;;;;;;9.93;3.72;;;2.70;99.90;;;;;;5071637;28;20515;-63
2024/01/12 05:02:09;;;;;;;8.00;3.38;;;2.60;99.90;;;;;;5071641;28;20056;-64
2024/01/12 05:04:35;;;;;;;5.65;3.40;;;2.60;99.90;;;;;;5071870;28;20080;-64
2024/01/12 05:07:01;;;;;;;9.98;4.00;;;2.60;99.90;;;;;;5070854;28;20132;-62
2024/01/12 05:09:28;;;;;;;9.13;4.13;;;2.80;99.90;;;;;;5071487;28;20428;-63
2024/01/12 05:11:56;;;;;;;9.25;3.22;;;2.70;99.90;;;;;;5071798;28;20102;-63
2024/01/12 05:14:22;;;;;;;8.70;3.33;;;2.70;99.90;;;;;;5071511;28;20488;-62
2024/01/12 05:16:48;;;;;;;10.63;3.88;;;2.70;99.90;;;;;;5072675;28;20095;-62
2024/01/12 05:19:14;;;;;;;10.48;3.28;;;2.70;99.90;;;;;;5071033;28;20055;-64
2024/01/12 05:21:41;;;;;;;8.38;3.90;;;2.70;99.90;;;;;;5071550;28;20048;-63
2024/01/12 05:24:07;;;;;;;7.03;3.55;;;2.70;99.90;;;;;;5070361;28;20418;-63
2024/01/12 05:26:34;;;;;;;8.38;3.25;;;2.70;99.90;;;;;;5071253;28;20446;-62
2024/01/12 05:29:01;;;;;;;9.07;3.78;;;2.70;99.90;;;;;;5071424;28;20084;-63
2024/01/12 05:31:27;;;;;;;7.32;3.30;;;2.80;99.90;;;;;;5071613;28;20222;-62
2024/01/12 05:33:54;;;;;;;10.35;4.20;;;2.80;99.90;;;;;;5070298;28;20044;-64
2024/01/12 05:36:21;;;;;;;12.75;4.90;;;2.80;99.90;;;;;;5070936;28;20049;-62
2024/01/12 05:38:47;;;;;;;5.72;3.40;;;2.80;99.90;;;;;;5071022;28;20044;-62
2024/01/12 05:41:14;;;;;;;11.27;4.35;;;2.80;99.90;;;;;;5071456;28;20048;-62
2024/01/12 05:43:40;;;;;;;8.38;4.00;;;2.70;99.90;;;;;;5070529;28;20056;-62
2024/01/12 05:46:07;;;;;;;10.90;3.53;;;2.90;99.90;;;;;;5070816;28;20068;-62
2024/01/12 05:48:34;;;;;;;8.77;4.50;;;2.80;99.90;;;;;;5070891;28;20169;-63
2024/01/12 05:51:01;;;;;;;8.38;3.90;;;2.80;99.90;;;;;;5071183;28;20052;-63
2024/01/12 05:53:28;;;;;;;5.68;3.88;;;2.70;99.90;;;;;;5071109;28;20137;-62
2024/01/12 05:55:54;;;;;;;8.82;5.30;;;2.70;99.90;;;;;;5070693;28;20060;-64
2024/01/12 05:58:21;;;;;;;11.55;4.68;;;2.70;99.90;;;;;;5069120;28;20049;-63
2024/01/12 06:00:48;;;;;;;11.90;5.38;;;2.70;99.90;;;;;;5070472;28;20048;-63
2024/01/12 06:03:16;;;;;;;6.03;3.88;;;2.70;99.90;;;;;;5067884;28;20057;-63
2024/01/12 06:05:44;;;;;;;7.88;4.32;;;2.70;99.90;;;;;;5069654;28;20045;-63
2024/01/12 06:08:10;;;;;;;6.55;3.83;;;2.70;99.90;;;;;;5065094;28;20052;-64
2024/01/12 06:10:36;;;;;;;7.90;4.32;;;2.80;99.90;;;;;;5069888;28;20040;-63
2024/01/12 06:13:04;;;;;;;7.68;3.92;;;2.60;99.90;;;;;;5069762;28;20045;-63
2024/01/12 06:15:30;;;;;;;8.88;4.50;;;2.80;99.90;;;;;;5070732;28;20113;-63
2024/01/12 06:17:58;;;;;;;9.75;4.35;;;2.70;99.90;;;;;;5069937;28;20059;-62
2024/01/12 06:20:25;;;;;;;9.43;3.88;;;2.70;99.90;;;;;;5070447;28;20052;-62
2024/01/12 06:22:51;;;;;;;8.88;5.10;;;2.70;99.90;;;;;;5069948;28;20052;-65
2024/01/12 06:25:18;;;;;;;7.47;4.22;;;2.60;99.90;;;;;;5069273;28;20060;-63
2024/01/12 06:27:46;;;;;;;7.95;4.55;;;2.70;99.90;;;;;;5068636;28;20119;-63
2024/01/12 06:30:12;;;;;;;11.25;5.03;;;2.60;99.90;;;;;;5069777;28;20218;-62
2024/01/12 06:32:39;;;;;;;8.68;4.40;;;2.70;99.90;;;;;;5069717;28;20452;-64
2024/01/12 06:35:08;;;;;;;9.30;4.18;;;2.50;99.90;;;;;;5070031;28;20043;-65
2024/01/12 06:37:34;;;;;;;11.70;4.57;;;2.50;99.90;;;;;;5068708;28;20049;-63
2024/01/12 06:40:01;;;;;;;13.52;5.55;;;2.50;99.90;;;;;;5069663;28;20048;-64
2024/01/12 06:42:30;;;;;;;8.27;4.63;;;2.60;99.90;;;;;;5069872;28;20469;-62
2024/01/12 06:44:57;;;;;;;9.13;4.60;;;2.50;99.90;;;;;;5069715;28;20044;-63
2024/01/12 06:47:23;;;;;;;8.85;4.60;;;2.60;99.90;;;;;;5069851;28;20067;-63
2024/01/12 06:49:50;;;;;;;8.65;4.03;;;2.50;99.90;;;;;;5068204;28;20536;-62
2024/01/12 06:52:16;;;;;;;11.43;4.50;;;2.70;99.90;;;;;;5069778;28;20085;-64
2024/01/12 06:54:44;;;;;;;11.02;4.90;;;2.50;99.90;;;;;;5068821;28;20040;-63
2024/01/12 06:57:10;;;;;;;14.38;5.60;;;2.60;99.90;;;;;;5074367;28;20059;-64
2024/01/12 06:59:37;;;;;;;11.63;4.88;;;2.50;99.90;;;;;;5048091;28;20041;-63
2024/01/12 07:02:04;;;;;;;11.30;4.72;;;2.50;99.90;;;;;;5068800;28;20071;-63
2024/01/12 07:04:31;;;;;;;17.58;5.30;;;2.50;99.90;;;;;;5069101;28;20048;-63
2024/01/12 07:06:58;;;;;;;10.35;5.82;;;2.50;99.90;;;;;;5069426;28;20052;-63
2024/01/12 07:09:24;;;;;;;11.15;6.05;;;2.60;99.90;;;;;;5068115;28;20048;-63
2024/01/12 07:11:51;;;;;;;14.90;6.60;;;2.50;99.90;;;;;;5065964;28;20040;-63
2024/01/12 07:14:18;;;;;;;17.30;8.43;;;2.50;99.90;;;;;;5068103;28;20349;-64
2024/01/12 07:16:45;;;;;;;13.07;7.35;;;2.50;99.90;;;;;;5067328;28;20105;-63
2024/01/12 07:19:11;;;;;;;12.93;7.20;;;2.50;99.90;;;;;;5068269;28;20068;-63
2024/01/12 07:21:38;;;;;;;13.95;7.00;;;2.40;99.90;;;;;;5068474;28;20045;-63
2024/01/12 07:24:04;;;;;;;17.73;7.03;;;2.40;99.90;;;;;;5068197;28;20067;-64
2024/01/12 07:26:30;;;;;;;19.92;7.15;;;2.50;99.90;;;;;;5068766;28;20475;-64
2024/01/12 07:28:59;;;;;;;17.13;8.15;;;2.60;99.90;;;;;;5068663;28;20452;-63
2024/01/12 07:31:25;;;;;;;13.18;6.60;;;2.60;99.90;;;;;;5065422;28;20063;-64
2024/01/12 07:33:52;;;;;;;11.35;6.70;;;2.50;99.90;;;;;;5071496;28;20048;-63
2024/01/12 07:36:18;;;;;;;11.85;6.68;;;2.70;99.90;;;;;;5069950;28;20759;-64
2024/01/12 07:38:44;;;;;;;10.30;6.65;;;2.60;99.90;;;;;;5070156;28;20147;-64
2024/01/12 07:41:11;;;;;;;12.68;7.35;;;2.70;99.90;;;;;;5071413;28;20044;-63
2024/01/12 07:43:37;;;;;;;12.02;6.35;;;2.60;99.90;;;;;;5071507;28;20056;-63
2024/01/12 07:46:03;;;;;;;10.95;6.40;;;2.70;99.90;;;;;;5071234;28;20045;-63
2024/01/12 07:48:30;;;;;;;12.07;6.18;;;2.50;99.90;;;;;;5070537;28;20136;-63
2024/01/12 07:50:56;;;;;;;16.40;7.10;;;2.50;99.90;;;;;;5071349;28;20048;-63
2024/01/12 07:53:22;;;;;;;14.27;8.02;;;2.50;99.90;;;;;;5070967;28;20075;-64
2024/01/12 07:55:52;;;;;;;16.55;8.80;;;2.70;99.90;;;;;;5071082;28;20040;-63
2024/01/12 07:58:20;;;;;;;13.00;7.45;;;2.50;99.90;;;;;;5053387;28;20067;-63
2024/01/12 08:00:46;;;;;;;14.73;7.00;;;2.50;99.90;;;;;;5071297;28;20067;-64
2024/01/12 08:03:12;;;;;;;13.88;6.00;;;2.70;99.90;;;;;;5071103;28;20400;-63
2024/01/12 08:05:38;;;;;;;16.30;6.60;;;2.50;99.90;;;;;;5070603;28;20503;-62
2024/01/12 08:08:05;;;;;;;12.63;6.75;;;2.60;99.90;;;;;;5072892;28;20053;-64
2024/01/12 08:10:31;;;;;;;11.73;6.43;;;2.70;99.90;;;;;;5074832;28;20044;-64
2024/01/12 08:12:58;;;;;;;11.75;6.35;;;2.70;99.90;;;;;;5074864;28;20403;-63
2024/01/12 08:15:24;;;;;;;17.00;8.40;;;2.80;99.90;;;;;;5074782;28;20055;-64
2024/01/12 08:17:50;;;;;;;22.38;12.30;;;2.60;99.90;;;;;;5074965;28;20049;-63
2024/01/12 08:20:17;;;;;;;21.83;11.55;;;2.80;99.90;;;;;;5073772;28;20443;-64
2024/01/12 08:22:44;;;;;;;15.63;7.78;;;2.70;99.90;;;;;;5073294;28;20056;-63
2024/01/12 08:25:11;;;;;;;12.60;6.95;;;2.90;99.90;;;;;;5080456;28;20056;-63
2024/01/12 08:27:37;;;;;;;14.27;5.85;;;2.70;99.90;;;;;;5075344;28;20109;-64
2024/01/12 08:30:03;;;;;;;10.65;6.43;;;2.90;99.90;;;;;;5073371;28;20056;-62
2024/01/12 08:32:30;;;;;;;14.80;8.75;;;2.80;99.90;;;;;;5073339;28;20439;-63
2024/01/12 08:34:56;;;;;;;15.73;7.75;;;2.80;99.90;;;;;;5073167;28;20052;-63
2024/01/12 08:37:22;;;;;;;13.10;7.40;;;3.00;99.90;;;;;;5074237;28;20041;-63
2024/01/12 08:39:49;;;;;;;16.15;6.70;;;2.90;99.90;;;;;;5072756;28;20052;-63
2024/01/12 08:42:16;;;;;;;11.45;5.95;;;3.10;99.90;;;;;;5074519;28;20075;-62
2024/01/12 08:44:42;;;;;;;14.20;5.20;;;3.00;99.90;;;;;;5073161;28;20445;-62
2024/01/12 08:47:08;;;;;;;9.20;4.78;;;2.90;99.90;;;;;;5072909;28;20113;-63
2024/01/12 08:49:35;;;;;;;10.20;5.82;;;3.10;99.90;;;;;;5073952;28;20055;-63
2024/01/12 08:52:01;;;;;;;10.00;5.50;;;3.20;99.90;;;;;;5074061;28;20568;-63
2024/01/12 08:54:27;;;;;;;12.32;5.70;;;3.10;99.90;;;;;;5073830;28;20440;-62
2024/01/12 08:56:53;;;;;;;8.88;5.45;;;3.20;99.90;;;;;;5072853;28;20456;-62
2024/01/12 08:59:20;;;;;;;12.73;5.50;;;3.20;99.90;;;;;;5073820;28;20064;-62
2024/01/12 09:01:46;;;;;;;10.90;4.75;;;3.10;99.90;;;;;;5073205;28;20064;-62
2024/01/12 09:04:13;;;;;;;13.05;5.05;;;3.30;99.90;;;;;;5074271;28;20060;-63
2024/01/12 09:06:39;;;;;;;12.80;5.30;;;3.20;99.90;;;;;;5073623;28;20063;-62
2024/01/12 09:09:05;;;;;;;11.32;4.72;;;3.40;99.90;;;;;;5073621;28;20056;-63
2024/01/12 09:11:31;;;;;;;11.80;4.90;;;3.30;99.90;;;;;;5072704;28;20060;-63
2024/01/12 09:13:58;;;;;;;10.85;4.82;;;3.40;99.90;;;;;;5056293;28;20048;-63
2024/01/12 09:16:24;;;;;;;10.88;5.07;;;3.50;99.90;;;;;;5072681;28;20054;-62
2024/01/12 09:18:50;;;;;;;13.45;7.15;;;3.50;99.90;;;;;;5072160;28;20491;-63
2024/01/12 09:21:16;;;;;;;14.77;6.38;;;3.50;99.90;;;;;;5072528;28;20052;-63
2024/01/12 09:23:43;;;;;;;13.32;5.05;;;3.40;99.90;;;;;;5073504;28;20135;-63
2024/01/12 09:26:11;;;;;;;11.02;4.57;;;3.60;99.90;;;;;;5072982;28;20636;-62
2024/01/12 09:28:38;;;;;;;10.50;4.38;;;3.50;99.90;;;;;;5072168;28;20182;-64
2024/01/12 09:31:06;;;;;;;14.18;7.70;;;3.70;99.90;;;;;;5072156;28;20049;-63
2024/01/12 09:33:32;;;;;;;11.07;4.60;;;3.60;99.90;;;;;;5072158;28;20052;-62
2024/01/12 09:35:58;;;;;;;10.02;3.83;;;3.70;99.90;;;;;;5073089;28;20071;-63
2024/01/12 09:38:25;;;;;;;11.18;3.80;;;3.60;99.90;;;;;;5071721;28;20052;-63
2024/01/12 09:40:51;;;;;;;10.27;3.45;;;3.70;99.90;;;;;;5073335;28;20106;-63
2024/01/12 09:43:21;;;;;;;11.68;4.13;;;3.70;99.90;;;;;;5071858;28;20064;-62
2024/01/12 09:45:50;;;;;;;9.98;3.45;;;3.80;99.90;;;;;;5070788;28;20049;-62
2024/01/12 09:48:18;;;;;;;11.98;3.38;;;3.80;99.90;;;;;;5071028;28;20059;-63
2024/01/12 09:50:46;;;;;;;9.85;4.00;;;3.80;99.90;;;;;;5072924;28;20063;-62
2024/01/12 09:53:13;;;;;;;10.65;3.88;;;3.90;99.90;;;;;;5072819;28;20053;-63
2024/01/12 09:55:39;;;;;;;17.80;5.60;;;3.90;99.90;;;;;;5072798;28;20471;-64
2024/01/12 09:58:10;;;;;;;9.63;3.53;;;3.90;99.90;;;;;;5072745;28;20075;-63
2024/01/12 10:00:37;;;;;;;11.32;4.20;;;4.00;99.90;;;;;;5055376;28;20394;-64
2024/01/12 10:03:06;;;;;;;14.82;4.47;;;3.90;99.90;;;;;;5072902;28;20206;-63
2024/01/12 10:05:32;;;;;;;10.65;3.50;;;3.90;99.90;;;;;;5072658;28;20045;-64
2024/01/12 10:07:59;;;;;;;11.40;3.60;;;4.00;99.90;;;;;;5070975;28;20055;-65
2024/01/12 10:10:25;;;;;;;10.93;3.20;;;4.00;99.90;;;;;;5071209;28;20048;-63
2024/01/12 10:12:51;;;;;;;10.00;3.10;;;4.10;99.90;;;;;;5071215;28;20044;-63
2024/01/12 10:15:18;;;;;;;10.05;3.88;;;4.10;99.90;;;;;;5071124;28;20048;-62
2024/01/12 10:17:44;;;;;;;11.15;4.28;;;4.20;99.90;;;;;;5070564;28;20048;-63
2024/01/12 10:20:11;;;;;;;11.60;3.58;;;4.10;99.90;;;;;;5071158;28;20060;-63
2024/01/12 10:22:37;;;;;;;12.32;4.15;;;4.10;99.90;;;;;;5072021;28;20464;-62
2024/01/12 10:25:04;;;;;;;15.70;4.88;;;4.10;99.90;;;;;;5070986;28;20411;-62
2024/01/12 10:27:31;;;;;;;12.90;4.60;;;4.20;99.90;;;;;;5071603;28;20056;-63
2024/01/12 10:29:57;;;;;;;12.23;4.60;;;4.20;99.90;;;;;;5070319;28;20082;-63
2024/01/12 10:32:25;;;;;;;13.18;5.38;;;4.10;99.90;;;;;;5072412;28;20044;-63
2024/01/12 10:34:53;;;;;;;15.88;4.72;;;4.20;99.90;;;;;;5071036;28;20122;-63
2024/01/12 10:37:20;;;;;;;15.55;4.85;;;4.20;99.90;;;;;;5070957;28;20083;-63
2024/01/12 10:39:49;;;;;;;13.65;4.55;;;4.20;99.90;;;;;;5070990;28;20080;-63
2024/01/12 10:42:17;;;;;;;13.23;4.80;;;4.20;99.90;;;;;;5072130;28;20056;-64
2024/01/12 10:44:44;;;;;;;10.20;4.38;;;4.30;99.90;;;;;;5070568;28;20048;-63
2024/01/12 10:47:15;;;;;;;11.77;3.92;;;4.40;99.90;;;;;;5071661;28;20428;-62
2024/01/12 10:49:50;;;;;;;13.32;4.15;;;4.30;99.90;;;;;;5070591;28;20373;-63
2024/01/12 10:52:54;;;;;;;11.98;3.50;;;4.30;99.90;;;;;;5070386;28;20063;-62
2024/01/12 10:55:32;;;;;;;13.52;3.10;;;4.40;99.90;;;;;;5069952;28;20113;-63
2024/01/12 10:58:00;;;;;;;11.57;3.00;;;4.60;99.90;;;;;;5070208;28;20396;-63
2024/01/12 11:00:28;;;;;;;13.23;3.33;;;4.60;99.90;;;;;;5070574;28;20048;-63
2024/01/12 11:02:55;;;;;;;9.48;3.17;;;4.50;99.90;;;;;;5070848;28;20122;-61
2024/01/12 11:05:21;;;;;;;14.00;5.28;;;4.70;99.90;;;;;;5070111;28;20064;-62
2024/01/12 11:07:49;;;;;;;16.13;5.97;;;4.70;99.90;;;;;;5071354;28;20059;-61
2024/01/12 11:10:16;;;;;;;22.88;7.68;;;4.70;99.90;;;;;;5070116;28;20060;-61
2024/01/12 11:12:43;;;;;;;17.55;6.95;;;4.60;99.90;;;;;;5070362;28;20052;-61
2024/01/12 11:15:09;;;;;;;20.98;6.82;;;4.60;99.90;;;;;;5071436;28;20044;-62
2024/01/12 11:17:36;;;;;;;15.15;3.85;;;4.70;99.90;;;;;;5070735;28;20048;-63
2024/01/12 11:20:19;;;;;;;13.07;4.10;;;4.70;99.90;;;;;;5070042;28;20053;-63
2024/01/12 11:22:47;;;;;;;9.88;2.67;;;4.70;99.90;;;;;;5071423;28;20131;-61
2024/01/12 11:25:15;;;;;;;11.63;4.47;;;4.90;99.90;;;;;;5070302;28;20416;-62
2024/01/12 11:27:46;;;;;;;17.00;5.30;;;4.80;99.90;;;;;;5070449;28;20060;-63
2024/01/12 11:30:13;;;;;;;17.17;5.60;;;4.80;99.90;;;;;;5069823;28;20484;-63
2024/01/12 11:32:40;;;;;;;17.02;6.22;;;4.80;99.90;;;;;;5070244;28;20491;-63
2024/01/12 11:35:20;;;;;;;21.38;5.57;;;4.70;99.90;;;;;;5069851;28;20048;-62
2024/01/12 11:38:09;;;;;;;21.88;6.72;;;4.70;99.90;;;;;;5071153;28;20449;-62
2024/01/12 11:40:36;;;;;;;15.23;5.03;;;4.90;99.90;;;;;;5070329;28;20048;-63
2024/01/12 11:43:03;;;;;;;14.77;5.07;;;4.80;99.90;;;;;;5072506;28;20067;-63
2024/01/12 11:45:32;;;;;;;14.75;4.82;;;4.80;99.90;;;;;;5073773;28;20040;-63
2024/01/12 11:48:02;;;;;;;19.00;4.53;;;4.80;99.90;;;;;;5073677;28;20630;-62
2024/01/12 11:50:28;;;;;;;14.52;4.75;;;4.70;99.90;;;;;;5075201;28;20041;-63
2024/01/12 11:52:58;;;;;;;11.48;3.55;;;4.90;99.90;;;;;;5070378;28;20519;-64
2024/01/12 11:55:25;;;;;;;10.60;3.80;;;4.70;99.90;;;;;;5087725;28;20057;-63
2024/01/12 11:57:55;;;;;;;11.25;4.13;;;4.80;99.90;;;;;;5072897;28;20138;-63
2024/01/12 12:00:25;;;;;;;12.20;4.07;;;4.90;99.90;;;;;;5071684;28;20056;-64
2024/01/12 12:02:51;;;;;;;10.90;3.75;;;4.90;99.90;;;;;;5074315;28;20549;-63
2024/01/12 12:05:17;;;;;;;10.27;3.25;;;4.70;99.90;;;;;;5107193;28;20052;-63
2024/01/12 12:07:44;;;;;;;9.73;3.63;;;4.90;99.90;;;;;;5074488;28;20053;-64
2024/01/12 12:10:10;;;;;;;12.48;3.45;;;4.90;99.90;;;;;;5073631;28;20519;-63
2024/01/12 12:12:37;;;;;;;15.88;4.95;;;4.80;99.90;;;;;;5074002;28;20468;-63
2024/01/12 12:15:05;;;;;;;17.23;3.88;;;4.80;99.90;;;;;;5073561;28;20044;-63
2024/01/12 12:17:35;;;;;;;15.05;4.93;;;4.70;99.90;;;;;;5073217;28;20055;-63
2024/01/12 12:20:10;;;;;;;20.05;5.80;;;4.90;99.90;;;;;;5073036;28;20429;-62
2024/01/12 12:22:41;;;;;;;15.35;5.07;;;5.00;99.90;;;;;;5072413;28;20433;-62
2024/01/12 12:25:12;;;;;;;15.55;4.65;;;4.90;99.90;;;;;;5072307;28;20037;-63
2024/01/12 12:27:39;;;;;;;17.75;5.25;;;4.90;99.90;;;;;;5073290;28;20052;-63
2024/01/12 12:30:10;;;;;;;14.65;4.00;;;4.90;99.90;;;;;;5071737;28;20052;-63
2024/01/12 12:32:40;;;;;;;17.05;4.55;;;5.00;99.90;;;;;;5071956;28;20175;-64
2024/01/12 12:35:18;;;;;;;18.48;4.78;;;5.00;99.90;;;;;;5071722;28;20612;-63
2024/01/12 12:37:48;;;;;;;17.55;5.20;;;5.10;99.90;;;;;;5072003;28;20052;-63
2024/01/12 12:40:19;;;;;;;18.98;6.40;;;4.90;99.90;;;;;;5071514;28;20098;-63
2024/01/12 12:42:48;;;;;;;17.25;6.53;;;4.90;99.90;;;;;;5071666;28;20058;-63
2024/01/12 12:45:16;;;;;;;16.35;7.03;;;5.10;99.90;;;;;;5071586;28;20075;-64
2024/01/12 12:47:44;;;;;;;16.88;6.68;;;5.10;99.90;;;;;;5054670;28;20071;-62
2024/01/12 12:50:10;;;;;;;20.13;5.75;;;5.00;99.90;;;;;;5071156;28;20048;-63